Terminal Aerodrome Forecast
Issued by NWS

Home | Current Version | Previous Version | Text Only | Print | Product List | Glossary Off
Versions: 1 2 3 4 5 6 7 8 9 10 11 12 13 14 15 16 17 18

981
FTUS43 KGRB 050525
TAFATW
TAF
KATW 050525Z 0506/0606 23005KT P6SM SCT030 BKN090
      TEMPO 0506/0509 -SHSN BKN030
     FM050900 28005KT P6SM SCT025 BKN035
     FM051400 31007KT P6SM SCT035
     FM052100 24005KT P6SM BKN070=

USA.gov is the U.S. government's official web portal to all federal, state and local government web resources and services.